EGPH Airport Information

Runway Information
Runway 06 Length 8400 ft width 150 ft
Elevation 110 ft Threshold 700 ft Heading 59
Runway 24 Length 8400 ft Width 150 ft
Elevation 100 ft Threshold 700 ft Heading 239
Runway 08 Length 2621 ft width 150 ft
Elevation 100 ft Threshold 0 ft Heading 70
Runway 26 Length 2621 ft Width 150 ft
Elevation 110 ft Threshold 0 ft Heading 250
Runway 12 Length 5730 ft width 150 ft
Elevation 99 ft Threshold 0 ft Heading 119
Runway 30 Length 5730 ft Width 150 ft
Elevation 134 ft Threshold 204 ft Heading 299
Airport Frequencies
Type APP Name APP Frequency 121.2 MHZ
Type ATIS Name ATIS Frequency 131.35 MHZ
Type GND Name GND Frequency 121.75 MHZ
Type TWR Name TWR Frequency 118.7 MHZ
Airport Navaids
Type NDB Name Edinburgh Frequency 341 KHZ
Type NDB Name Edinburgh Frequency 368 KHZ
Airport Weather Information & NOTAM
ADDS - METARS form results

(0617 UTC 19 May 2019)
Data provider http://aviationweather.gov/metar/data/
 
METAR text: EGPH 190550Z 28003KT 9999 -RA FEW014 SCT021 11/10 Q1008
Conditions at: EGPH (EDINBURGH AIRPOR, GB) observed 0550 UTC 19 May 2019
Temperature: 11.0°C (52°F)
Dewpoint: 10.0°C (50°F) [RH = 94%]
Pressure (altimeter): 29.76 inches Hg (1008.0 mb)
Winds: from the W (280 degrees) at 3 MPH (3 knots; 1.5 m/s)
Visibility: 6 or more miles (10+ km)
Ceiling: at least 12,000 feet AGL
Clouds: few clouds at 1400 feet AGL
scattered clouds at 2100 feet AGL
Weather: -RA  (light rain)

METAR text: EGPH 190520Z VRB03KT 9999 OVC017 11/10 Q1008
Conditions at: EGPH (EDINBURGH AIRPOR, GB) observed 0520 UTC 19 May 2019
Temperature: 11.0°C (52°F)
Dewpoint: 10.0°C (50°F) [RH = 94%]
Pressure (altimeter): 29.76 inches Hg (1008.0 mb)
Winds: variable direction winds at 3 MPH (3 knots; 1.5 m/s)
Visibility: 6 or more miles (10+ km)
Ceiling: 1700 feet AGL
Clouds: overcast cloud deck at 1700 feet AGL
Weather: no significant weather observed at this time

Forecast for: EGPH (EDINBURGH AIRPOR, GB)
Text: TAF EGPH 190500Z 1906/2006 24004KT 9999 SCT014
Forecast period: 0600 UTC 19 May 2019 to 0600 UTC 20 May 2019
Forecast type: FROM: standard forecast or significant change
Winds: from the WSW (240 degrees) at 5 MPH (4 knots; 2.1 m/s)
Visibility: 6 or more miles 10+ km)
Ceiling: at least 12,000 feet AGL
Clouds: scattered clouds at 1400 feet AGL
Weather: no significant weather forecast for this period
Text: TEMPO 1906/1909 8000 -RA BKN008
Forecast period: 0600 to 0900 UTC 19 May 2019
Forecast type: TEMPORARY: The following changes expected for less than half the time period
Visibility: 5 miles (8 km)
Ceiling: 800 feet AGL
Clouds: broken clouds at 800 feet AGL
Weather: -RA  (light rain)
Text: PROB30
Forecast period: 0900 to 1600 UTC 19 May 2019
Forecast type: TEMPORARY: The following changes expected for less than half the time period
Visibility: 4 miles (6 km)
Ceiling: unknown
Clouds: missing
Weather: SHRA  (rain showers)